Time;durP1;ratioP1;P1;durP2;ratioP2;P2;SDS_P1;SDS_P2;PMS_P1;PMS_P2;Temp;Humidity;BMP_temperature;BMP_pressure;BME280_temperature;BME280_humidity;BME280_pressure;Samples;Min_cycle;Max_cycle;Signal;HPM_P1;HPM_P2
2022/04/25 00:01:30;;;;;;;6.07;2.40;;;;;;;19.71;32.43;100494.81;5042251;28;20055;-66
2022/04/25 00:03:55;;;;;;;4.43;2.28;;;;;;;19.69;32.11;100497.72;5043193;28;20024;-66
2022/04/25 00:06:21;;;;;;;3.95;2.42;;;;;;;19.67;32.39;100501.69;5024305;28;20392;-66
2022/04/25 00:08:46;;;;;;;2.85;2.42;;;;;;;19.66;32.64;100500.00;5042773;28;20043;-66
2022/04/25 00:11:12;;;;;;;3.65;2.58;;;;;;;19.61;31.86;100506.03;5033147;28;20083;-66
2022/04/25 00:13:37;;;;;;;4.07;2.10;;;;;;;19.59;33.00;100504.53;5049422;28;20057;-66
2022/04/25 00:16:03;;;;;;;3.20;2.08;;;;;;;19.58;32.34;100502.84;5033836;28;20029;-66
2022/04/25 00:18:29;;;;;;;4.43;2.40;;;;;;;19.55;32.33;100506.81;5034066;28;20399;-66
2022/04/25 00:20:55;;;;;;;4.72;2.45;;;;;;;19.55;32.47;100505.94;5019596;28;20033;-65
2022/04/25 00:23:21;;;;;;;3.22;2.15;;;;;;;19.54;32.91;100504.28;5037796;28;20021;-66
2022/04/25 00:25:46;;;;;;;3.42;2.15;;;;;;;19.53;32.11;100505.31;5037736;28;20025;-66
2022/04/25 00:28:12;;;;;;;4.00;2.13;;;;;;;19.51;32.18;100513.69;5037215;28;20026;-66
2022/04/25 00:30:37;;;;;;;3.33;2.50;;;;;;;19.50;32.93;100511.97;5037216;28;20087;-67
2022/04/25 00:33:03;;;;;;;2.83;1.92;;;;;;;19.48;32.82;100511.34;5037242;28;20470;-67
2022/04/25 00:35:28;;;;;;;6.13;2.00;;;;;;;19.46;33.42;100526.13;5037046;28;20086;-66
2022/04/25 00:37:54;;;;;;;3.08;2.30;;;;;;;19.45;32.24;100508.16;5037529;28;20031;-66
2022/04/25 00:40:21;;;;;;;6.03;2.15;;;;;;;19.44;33.26;100518.19;5037264;28;20032;-66
2022/04/25 00:42:48;;;;;;;3.00;2.35;;;;;;;19.43;33.23;100512.97;5037532;28;20022;-66
2022/04/25 00:45:13;;;;;;;3.40;2.03;;;;;;;19.41;33.58;100520.44;5037783;28;20386;-66
2022/04/25 00:47:39;;;;;;;7.97;2.08;;;;;;;19.41;32.94;100520.44;5037291;28;20029;-66
2022/04/25 00:50:06;;;;;;;4.40;2.08;;;;;;;19.39;33.25;100525.25;5037097;28;20113;-65
2022/04/25 00:52:32;;;;;;;2.78;2.10;;;;;;;19.35;33.60;100526.63;5019507;28;20029;-66
2022/04/25 00:54:58;;;;;;;7.22;2.58;;;;;;;19.32;33.60;100524.31;5037610;28;20409;-66
2022/04/25 00:57:24;;;;;;;10.20;3.45;;;;;;;19.27;33.55;100524.03;5002940;28;20029;-66
2022/04/25 00:59:50;;;;;;;6.65;2.13;;;;;;;19.22;33.19;100524.63;5019349;28;20033;-66
2022/04/25 01:02:15;;;;;;;4.22;2.28;;;;;;;19.19;33.80;100528.56;5003135;28;20068;-66
2022/04/25 01:04:42;;;;;;;2.00;1.70;;;;;;;19.16;33.69;100523.50;5036898;28;20029;-66
2022/04/25 01:07:09;;;;;;;4.60;2.55;;;;;;;19.11;32.75;100525.13;5036609;28;20079;-66
2022/04/25 01:09:34;;;;;;;4.78;2.17;;;;;;;19.14;33.38;100528.31;5036676;28;20143;-66
2022/04/25 01:12:00;;;;;;;8.15;2.85;;;;;;;19.12;34.15;100527.63;5036226;28;20162;-66
2022/04/25 01:14:26;;;;;;;5.38;2.65;;;;;;;19.09;33.69;100528.03;5036588;28;20025;-66
2022/04/25 01:16:51;;;;;;;8.20;2.65;;;;;;;19.08;33.60;100528.22;5036738;28;20025;-65
2022/04/25 01:19:17;;;;;;;5.35;2.63;;;;;;;19.06;33.83;100531.13;5036896;28;20072;-66
2022/04/25 01:22:02;;;;;;;2.30;2.08;;;;;;;19.03;33.92;100528.81;5037023;28;20360;-66
2022/04/25 01:27:17;;;;;;;4.30;2.15;;;;;;;18.99;34.10;100527.50;5021652;28;20103;-66
2022/04/25 01:29:43;;;;;;;3.38;2.38;;;;;;;18.96;34.57;100527.03;5013429;28;20057;-67
2022/04/25 01:32:09;;;;;;;4.65;2.30;;;;;;;18.94;33.87;100524.50;5015913;28;20037;-66
2022/04/25 01:34:39;;;;;;;3.67;2.40;;;;;;;18.96;34.00;100530.59;5016493;28;20042;-66
2022/04/25 01:37:05;;;;;;;7.22;2.63;;;;;;;18.94;33.97;100535.38;5016386;28;20065;-67
2022/04/25 01:39:52;;;;;;;3.45;2.38;;;;;;;18.92;34.17;100537.44;5016944;28;20120;-66
2022/04/25 01:42:18;;;;;;;13.55;2.53;;;;;;;18.91;35.29;100541.19;5016489;28;20042;-66
2022/04/25 01:44:44;;;;;;;4.88;2.45;;;;;;;18.88;34.36;100538.00;5016257;28;20064;-66
2022/04/25 01:47:11;;;;;;;4.13;2.25;;;;;;;18.86;34.67;100546.34;5016366;28;20080;-66
2022/04/25 01:49:37;;;;;;;3.85;2.65;;;;;;;18.83;34.62;100544.00;5016343;28;20497;-66
2022/04/25 01:52:16;;;;;;;3.20;2.30;;;;;;;18.80;34.53;100552.53;5016287;28;20176;-66
2022/04/25 01:54:41;;;;;;;4.05;2.47;;;;;;;18.76;34.63;100544.97;5014960;28;20025;-66
2022/04/25 01:57:06;;;;;;;3.15;2.22;;;;;;;18.72;34.01;100539.06;5015959;28;20033;-66
2022/04/25 01:59:32;;;;;;;6.38;3.13;;;;;;;18.70;34.66;100543.84;5016100;28;20022;-65
2022/04/25 02:02:00;;;;;;;3.92;2.50;;;;;;;18.65;34.45;100542.72;5016223;28;20029;-67
2022/04/25 02:04:25;;;;;;;6.68;2.67;;;;;;;18.61;34.94;100544.97;5016170;28;20387;-66
2022/04/25 02:06:50;;;;;;;3.53;2.38;;;;;;;18.58;35.37;100551.59;5015485;28;20139;-67
2022/04/25 02:09:17;;;;;;;5.90;2.85;;;;;;;18.55;35.45;100549.25;5015821;28;20545;-66
2022/04/25 02:11:42;;;;;;;9.45;3.05;;;;;;;18.49;35.09;100544.59;5015740;28;20038;-67
2022/04/25 02:14:08;;;;;;;5.72;3.00;;;;;;;18.47;34.89;100548.47;5016049;28;20060;-66
2022/04/25 02:16:33;;;;;;;4.13;2.75;;;;;;;18.42;34.84;100537.34;5015792;28;20045;-66
2022/04/25 02:18:59;;;;;;;5.47;2.50;;;;;;;18.37;34.87;100537.09;5014438;28;20037;-66
2022/04/25 02:21:24;;;;;;;4.88;2.95;;;;;;;18.35;34.89;100548.09;5014424;28;20426;-66
2022/04/25 02:23:50;;;;;;;6.25;3.67;;;;;;;18.32;35.51;100555.75;5014285;28;20032;-67
2022/04/25 02:26:15;;;;;;;5.65;3.53;;;;;;;18.28;35.13;100547.19;5015788;28;20390;-66
2022/04/25 02:28:41;;;;;;;4.28;3.03;;;;;;;18.22;35.19;100539.78;5015913;28;20526;-66
2022/04/25 02:31:07;;;;;;;7.88;3.00;;;;;;;18.20;36.08;100547.22;5032732;28;20053;-66
2022/04/25 02:33:33;;;;;;;6.22;3.22;;;;;;;18.16;35.29;100551.34;5035213;28;20590;-66
2022/04/25 02:36:05;;;;;;;9.13;3.00;;;;;;;18.14;35.35;100560.72;5034881;28;20030;-65
2022/04/25 02:38:32;;;;;;;7.05;3.53;;;;;;;18.08;35.39;100551.44;5035021;28;20040;-66
2022/04/25 02:41:08;;;;;;;5.30;3.53;;;;;;;18.06;35.26;100555.38;5034875;28;20087;-67
2022/04/25 02:43:36;;;;;;;6.28;3.15;;;;;;;18.01;35.96;100547.78;5034100;28;20025;-66
2022/04/25 02:46:02;;;;;;;5.57;3.42;;;;;;;17.96;36.15;100553.75;5034887;28;20479;-66
2022/04/25 02:48:29;;;;;;;6.63;3.35;;;;;;;17.94;36.51;100563.09;5016645;28;20041;-66
2022/04/25 02:50:55;;;;;;;6.18;2.90;;;;;;;17.90;36.44;100559.06;5034569;28;20049;-66
2022/04/25 02:53:20;;;;;;;8.50;3.22;;;;;;;17.86;36.28;100558.59;5034723;28;20061;-66
2022/04/25 02:55:45;;;;;;;9.30;3.40;;;;;;;17.84;36.34;100562.50;5034721;28;20028;-66
2022/04/25 02:58:11;;;;;;;4.70;3.28;;;;;;;17.79;36.60;100568.47;5016749;28;20022;-66
2022/04/25 03:00:37;;;;;;;7.65;2.97;;;;;;;17.76;35.70;100565.28;5034771;28;20155;-66
2022/04/25 03:03:02;;;;;;;8.55;3.40;;;;;;;17.72;36.61;100564.81;5034179;28;20040;-66
2022/04/25 03:05:28;;;;;;;9.75;3.35;;;;;;;17.66;37.00;100565.53;5034254;28;20498;-66
2022/04/25 03:07:53;;;;;;;7.90;3.40;;;;;;;17.64;36.47;100564.88;5034339;28;20021;-66
2022/04/25 03:10:18;;;;;;;6.57;3.70;;;;;;;17.60;36.84;100568.97;5016974;28;20029;-65
2022/04/25 03:12:44;;;;;;;7.40;4.15;;;;;;;17.57;35.65;100566.63;5034187;28;20029;-66
2022/04/25 03:15:09;;;;;;;7.15;4.30;;;;;;;17.53;36.85;100567.97;5034110;28;20391;-67
2022/04/25 03:17:34;;;;;;;7.85;3.65;;;;;;;17.51;35.65;100571.88;5034534;28;20014;-66
2022/04/25 03:20:00;;;;;;;6.38;3.45;;;;;;;17.47;37.15;100577.63;5034223;28;20467;-66
2022/04/25 03:22:26;;;;;;;6.85;3.53;;;;;;;17.43;36.99;100565.50;5034075;28;20427;-67
2022/04/25 03:24:51;;;;;;;12.50;3.50;;;;;;;17.41;36.17;100572.13;5033935;28;20422;-65
2022/04/25 03:27:16;;;;;;;6.38;4.00;;;;;;;17.35;36.85;100570.13;5016211;28;20479;-66
2022/04/25 03:29:42;;;;;;;7.18;3.92;;;;;;;17.33;35.99;100564.06;5033835;28;20113;-66
2022/04/25 03:32:07;;;;;;;8.30;3.55;;;;;;;17.30;36.05;100572.53;5034035;28;20053;-66
2022/04/25 03:34:36;;;;;;;6.78;3.75;;;;;;;17.28;37.52;100575.41;5016216;28;20048;-66
2022/04/25 03:37:02;;;;;;;5.65;3.72;;;;;;;17.24;36.86;100568.66;5034118;28;20084;-66
2022/04/25 03:39:29;;;;;;;5.85;3.45;;;;;;;17.22;37.32;100580.69;5016273;28;20053;-67
2022/04/25 03:41:54;;;;;;;5.88;3.45;;;;;;;17.18;36.53;100571.25;5033707;28;20026;-67
2022/04/25 03:44:19;;;;;;;8.85;3.38;;;;;;;17.15;36.26;100577.00;5033962;28;20032;-66
2022/04/25 03:46:45;;;;;;;12.60;4.35;;;;;;;17.14;36.76;100572.63;5033715;28;20078;-66
2022/04/25 03:49:10;;;;;;;7.25;3.42;;;;;;;17.11;36.67;100575.69;5016335;28;20113;-66
2022/04/25 03:51:35;;;;;;;8.07;4.50;;;;;;;17.10;37.06;100579.41;5033966;28;20048;-66
2022/04/25 03:54:01;;;;;;;6.22;3.40;;;;;;;17.08;36.85;100576.03;5033569;28;20057;-67
2022/04/25 03:59:10;;;;;;;7.78;4.57;;;;;;;17.02;37.99;100571.34;5034172;28;20056;-66
2022/04/25 04:01:36;;;;;;;7.35;3.95;;;;;;;16.99;36.53;100571.69;5033951;28;20057;-66
2022/04/25 04:04:05;;;;;;;6.75;4.30;;;;;;;16.97;37.18;100581.84;5033611;28;20037;-66
2022/04/25 04:06:31;;;;;;;9.68;3.95;;;;;;;16.96;37.27;100582.84;5033808;28;20060;-67
2022/04/25 04:08:57;;;;;;;8.90;3.78;;;;;;;16.92;37.01;100585.06;5033749;28;20029;-66
2022/04/25 04:11:22;;;;;;;8.43;3.75;;;;;;;16.89;37.19;100577.28;5033591;28;20438;-66
2022/04/25 04:13:47;;;;;;;10.63;4.40;;;;;;;16.87;38.41;100580.19;5015878;28;20031;-66
2022/04/25 04:16:13;;;;;;;7.28;3.83;;;;;;;16.83;37.63;100586.13;5033578;28;20029;-66
2022/04/25 04:18:40;;;;;;;9.02;5.15;;;;;;;16.80;37.12;100581.94;5033397;28;20029;-67
2022/04/25 04:21:06;;;;;;;12.40;4.18;;;;;;;16.78;37.01;100585.81;5033651;28;20038;-67
2022/04/25 04:23:31;;;;;;;7.28;4.30;;;;;;;16.75;38.13;100589.69;5016142;28;20029;-66
2022/04/25 04:25:56;;;;;;;6.43;3.53;;;;;;;16.72;38.40;100587.34;5033594;28;20082;-67
2022/04/25 04:28:22;;;;;;;8.20;3.72;;;;;;;16.68;37.17;100579.75;5033532;28;20502;-66
2022/04/25 04:30:47;;;;;;;10.77;3.58;;;;;;;16.68;38.15;100591.44;5033250;28;20414;-66
2022/04/25 04:33:12;;;;;;;11.38;4.22;;;;;;;16.64;38.51;100595.50;5033628;28;20037;-66
2022/04/25 04:38:22;;;;;;;6.75;4.40;;;;;;;16.59;37.84;100597.88;5033122;28;20032;-66
2022/04/25 04:40:47;;;;;;;10.18;3.58;;;;;;;16.55;37.22;100593.00;5015768;28;20033;-66
2022/04/25 04:43:12;;;;;;;7.57;4.68;;;;;;;16.55;38.47;100593.00;5033052;28;20025;-67
2022/04/25 04:45:38;;;;;;;7.93;4.65;;;;;;;16.53;38.18;100598.56;5032945;28;20026;-66
2022/04/25 04:48:03;;;;;;;7.97;3.90;;;;;;;16.51;38.66;100600.56;5033136;28;20033;-66
2022/04/25 04:50:29;;;;;;;7.80;4.45;;;;;;;16.48;37.37;100600.06;5015487;28;20032;-66
2022/04/25 04:52:59;;;;;;;6.53;4.38;;;;;;;16.42;38.29;100601.59;5033115;28;20022;-66
2022/04/25 04:55:24;;;;;;;16.42;4.53;;;;;;;16.43;39.16;100605.16;5033068;28;20026;-66
2022/04/25 04:57:50;;;;;;;15.80;4.10;;;;;;;16.40;37.48;100603.63;5033117;28;20037;-65
2022/04/25 05:00:16;;;;;;;8.80;4.43;;;;;;;16.38;37.68;100611.09;5015785;28;20032;-66
2022/04/25 05:02:47;;;;;;;7.00;4.05;;;;;;;16.38;37.43;100616.50;5033158;28;20435;-66
2022/04/25 05:05:13;;;;;;;6.47;4.20;;;;;;;16.39;38.42;100622.75;5032901;28;20022;-66
2022/04/25 05:07:39;;;;;;;7.28;4.28;;;;;;;16.44;37.65;100623.94;5035749;28;20025;-66
2022/04/25 05:10:06;;;;;;;9.27;4.07;;;;;;;16.48;38.09;100627.97;5018740;28;20049;-66
2022/04/25 05:12:45;;;;;;;11.80;5.35;;;;;;;16.54;39.35;100624.59;5019233;28;20108;-66
2022/04/25 05:15:11;;;;;;;9.20;4.50;;;;;;;16.60;37.71;100632.03;5036305;28;20029;-66
2022/04/25 05:17:36;;;;;;;9.35;4.97;;;;;;;16.65;38.98;100629.63;5036144;28;20029;-66
2022/04/25 05:20:01;;;;;;;10.15;4.38;;;;;;;16.72;39.13;100635.22;5036131;28;20029;-66
2022/04/25 05:22:27;;;;;;;7.95;4.60;;;;;;;16.80;37.60;100640.59;5036254;28;20025;-66
2022/04/25 05:24:52;;;;;;;10.95;5.35;;;;;;;16.88;37.72;100646.81;5036146;28;20018;-67
2022/04/25 05:27:17;;;;;;;22.85;5.32;;;;;;;16.94;38.38;100634.47;5035935;28;20021;-66
2022/04/25 05:29:43;;;;;;;10.80;4.15;;;;;;;17.04;38.11;100639.66;5036138;28;20032;-66
2022/04/25 05:32:09;;;;;;;10.23;5.15;;;;;;;17.10;38.51;100641.66;5036426;28;20041;-66
2022/04/25 05:34:34;;;;;;;14.48;5.47;;;;;;;17.16;39.09;100640.97;5037478;28;20032;-66
2022/04/25 05:36:59;;;;;;;13.27;4.85;;;;;;;17.20;37.59;100644.97;5036299;28;20101;-66
2022/04/25 05:39:25;;;;;;;11.35;4.53;;;;;;;17.20;37.59;100650.41;5055888;28;20025;-66
2022/04/25 05:41:50;;;;;;;7.07;4.57;;;;;;;17.22;38.01;100653.78;5055698;28;20032;-66
2022/04/25 05:44:15;;;;;;;8.85;4.88;;;;;;;17.28;37.90;100653.09;5038148;28;20017;-67
2022/04/25 05:46:41;;;;;;;11.13;4.60;;;;;;;17.33;38.76;100656.97;5055705;28;20035;-67
2022/04/25 05:51:59;;;;;;;10.02;4.93;;;;;;;17.38;38.73;100659.13;5055784;28;20028;-66
2022/04/25 05:54:28;;;;;;;12.75;5.35;;;;;;;17.44;38.58;100666.53;5055735;28;20071;-66
2022/04/25 05:56:54;;;;;;;12.40;5.18;;;;;;;17.59;38.43;100662.06;5054500;28;20024;-66
2022/04/25 05:59:19;;;;;;;8.05;4.70;;;;;;;17.75;38.49;100675.53;5055264;28;20017;-66
2022/04/25 06:01:45;;;;;;;12.20;5.45;;;;;;;17.90;37.74;100671.00;5055432;28;20024;-66
2022/04/25 06:04:10;;;;;;;8.25;5.20;;;;;;;18.06;37.82;100670.06;5055245;28;20036;-67
2022/04/25 06:06:36;;;;;;;12.90;5.50;;;;;;;18.22;37.50;100674.50;5055537;28;20024;-67
2022/04/25 06:09:02;;;;;;;8.90;5.70;;;;;;;18.34;38.07;100662.19;5055036;28;20031;-67
2022/04/25 06:11:27;;;;;;;12.10;5.47;;;;;;;18.42;37.49;100671.13;5055293;28;20108;-67
2022/04/25 06:13:56;;;;;;;11.10;5.50;;;;;;;18.47;37.50;100673.25;5055500;28;20098;-66
2022/04/25 06:16:21;;;;;;;10.80;5.32;;;;;;;18.57;37.82;100673.88;5055452;28;20127;-67
2022/04/25 06:18:47;;;;;;;9.32;5.63;;;;;;;18.68;37.75;100686.97;5055189;28;20127;-67
2022/04/25 06:21:12;;;;;;;14.82;5.28;;;;;;;18.79;37.74;100683.81;5021041;28;20029;-67
2022/04/25 06:23:38;;;;;;;9.85;5.32;;;;;;;18.89;37.06;100683.53;5037332;28;20033;-66
2022/04/25 06:26:03;;;;;;;16.27;5.75;;;;;;;18.99;37.53;100689.53;5054995;28;20112;-66
2022/04/25 06:28:29;;;;;;;11.32;5.78;;;;;;;19.11;37.00;100683.47;5055424;28;20114;-67
2022/04/25 06:30:54;;;;;;;13.70;6.07;;;;;;;19.23;36.80;100683.84;5054991;28;20076;-66
2022/04/25 06:33:20;;;;;;;10.63;6.72;;;;;;;19.29;37.32;100685.78;5055266;28;20029;-66
2022/04/25 06:35:46;;;;;;;12.57;7.07;;;;;;;19.25;37.76;100689.06;5054890;28;20028;-67
2022/04/25 06:38:12;;;;;;;13.95;6.50;;;;;;;19.31;36.98;100691.03;5037074;28;20032;-67
2022/04/25 06:40:40;;;;;;;10.95;6.45;;;;;;;19.54;36.73;100689.06;5054867;28;20059;-67
2022/04/25 06:43:05;;;;;;;10.63;6.03;;;;;;;19.76;37.02;100683.44;5054790;28;20464;-66
2022/04/25 06:45:31;;;;;;;16.83;6.68;;;;;;;19.98;36.52;100687.06;5054773;28;20032;-66
2022/04/25 06:47:56;;;;;;;10.65;7.40;;;;;;;20.14;36.49;100692.22;5054949;28;20021;-66
2022/04/25 06:50:22;;;;;;;11.68;6.43;;;;;;;20.30;36.71;100693.88;5037082;28;20127;-66
2022/04/25 06:52:48;;;;;;;9.70;6.20;;;;;;;20.48;36.12;100687.97;5040910;28;20029;-67
2022/04/25 06:55:13;;;;;;;10.65;6.10;;;;;;;20.60;36.38;100686.41;5054818;28;20029;-66
2022/04/25 06:57:39;;;;;;;14.23;6.82;;;;;;;20.76;36.70;100695.09;5054890;28;20079;-66
2022/04/25 07:00:08;;;;;;;14.27;6.45;;;;;;;20.94;35.72;100689.13;5054917;28;20033;-66
2022/04/25 07:02:34;;;;;;;12.13;6.30;;;;;;;21.08;36.17;100696.38;5054841;28;20079;-66
2022/04/25 07:05:00;;;;;;;13.48;6.75;;;;;;;21.25;36.05;100691.44;5054441;28;20025;-66
2022/04/25 07:07:25;;;;;;;11.15;6.38;;;;;;;21.27;36.34;100706.53;5054406;28;20085;-66
2022/04/25 07:09:50;;;;;;;11.70;6.60;;;;;;;21.41;36.10;100708.28;5036659;28;20025;-66
2022/04/25 07:12:16;;;;;;;16.08;7.53;;;;;;;21.59;35.45;100712.34;5054275;28;20389;-66
2022/04/25 07:14:41;;;;;;;13.05;6.45;;;;;;;21.73;35.82;100714.09;5054491;28;20091;-66
2022/04/25 07:17:07;;;;;;;16.40;6.45;;;;;;;21.83;35.93;100711.84;5054515;28;20021;-67
2022/04/25 07:19:32;;;;;;;15.23;7.65;;;;;;;21.69;35.61;100712.84;5054267;28;20031;-67
2022/04/25 07:30:10;;;;;;;13.00;8.05;;;;;;;21.12;36.28;100726.78;5053524;28;20091;-66
2022/04/25 07:32:40;;;;;;;13.98;7.45;;;;;;;21.01;36.29;100725.44;5054475;28;20052;-66
2022/04/25 07:35:07;;;;;;;17.88;6.95;;;;;;;20.98;36.22;100723.09;5053507;28;20041;-66
2022/04/25 07:37:33;;;;;;;15.52;6.78;;;;;;;21.04;36.56;100722.31;5054025;28;20025;-66
2022/04/25 07:39:59;;;;;;;13.43;7.30;;;;;;;21.04;35.96;100725.03;5054196;28;20339;-66
2022/04/25 07:42:24;;;;;;;11.95;7.25;;;;;;;21.03;36.40;100726.06;5054146;28;20021;-66
2022/04/25 07:44:50;;;;;;;13.93;7.63;;;;;;;21.04;35.74;100727.75;5053832;28;20104;-66
2022/04/25 07:47:15;;;;;;;14.07;8.05;;;;;;;21.13;36.20;100729.34;5053719;28;20024;-66
2022/04/25 07:49:41;;;;;;;17.70;9.35;;;;;;;21.54;35.81;100728.50;5052601;28;20032;-66
2022/04/25 07:52:07;;;;;;;11.55;6.93;;;;;;;21.83;35.66;100733.66;5033783;28;20036;-65
2022/04/25 07:54:33;;;;;;;15.73;7.68;;;;;;;21.95;35.17;100742.94;5034180;28;20048;-66
2022/04/25 07:56:58;;;;;;;15.73;8.38;;;;;;;22.22;34.97;100727.50;5033953;28;20105;-66
2022/04/25 07:59:24;;;;;;;17.10;7.90;;;;;;;22.27;34.71;100736.75;5016380;28;20040;-66
2022/04/25 08:01:49;;;;;;;15.07;7.18;;;;;;;22.20;35.25;100740.47;5034070;28;20030;-66
2022/04/25 08:04:15;;;;;;;14.32;9.32;;;;;;;22.17;35.66;100744.47;5033969;28;20035;-66
2022/04/25 08:06:40;;;;;;;13.43;7.90;;;;;;;22.11;35.33;100749.94;5034313;28;20075;-67
2022/04/25 08:09:06;;;;;;;12.48;7.63;;;;;;;22.08;35.09;100747.59;5033939;28;20021;-67
2022/04/25 08:11:31;;;;;;;14.30;8.18;;;;;;;22.09;35.89;100738.34;5033297;28;20037;-66
2022/04/25 08:19:18;;;;;;;13.80;7.82;;;;;;;22.04;34.95;100752.63;5033784;28;20037;-66
2022/04/25 08:21:44;;;;;;;11.70;8.18;;;;;;;21.93;35.14;100748.63;5034314;28;20068;-66
2022/04/25 08:24:10;;;;;;;13.45;7.43;;;;;;;21.86;35.30;100749.63;5033716;28;20527;-66
2022/04/25 08:26:36;;;;;;;15.45;8.07;;;;;;;21.84;35.36;100762.59;5033681;28;20417;-66
2022/04/25 08:29:02;;;;;;;13.68;8.77;;;;;;;21.80;35.23;100767.59;5033595;28;20033;-66
2022/04/25 08:31:27;;;;;;;13.18;8.20;;;;;;;21.78;35.42;100758.78;5033441;28;20151;-67
2022/04/25 08:33:53;;;;;;;15.73;8.57;;;;;;;21.82;35.24;100761.97;5033752;28;20041;-66
2022/04/25 08:36:19;;;;;;;16.70;8.35;;;;;;;21.87;35.99;100773.97;5033261;28;20032;-66
2022/04/25 08:38:45;;;;;;;20.63;8.80;;;;;;;21.96;35.20;100761.84;5033851;28;20032;-66
2022/04/25 08:41:13;;;;;;;13.60;8.23;;;;;;;22.07;35.10;100762.28;5017560;28;20043;-65
2022/04/25 08:43:39;;;;;;;11.15;7.55;;;;;;;22.13;35.04;100766.94;5020735;28;20044;-65
2022/04/25 08:46:07;;;;;;;17.17;9.05;;;;;;;22.11;35.60;100774.50;5019835;28;20521;-65
2022/04/25 08:48:32;;;;;;;18.17;8.80;;;;;;;22.13;35.16;100773.22;5003622;28;20030;-65
2022/04/25 08:50:58;;;;;;;12.43;8.50;;;;;;;22.30;34.46;100774.53;5003880;28;20025;-66
2022/04/25 08:53:23;;;;;;;13.25;8.63;;;;;;;22.28;34.98;100773.88;5019768;28;20064;-67
2022/04/25 08:55:49;;;;;;;18.83;8.98;;;;;;;22.28;34.96;100775.78;5037098;28;20025;-66
2022/04/25 08:58:15;;;;;;;20.33;10.65;;;;;;;22.25;34.64;100774.28;5037279;28;20079;-66
2022/04/25 09:00:41;;;;;;;17.15;10.20;;;;;;;22.21;35.38;100786.69;5037275;28;20028;-66
2022/04/25 09:03:07;;;;;;;18.70;10.70;;;;;;;22.22;35.05;100779.34;5037223;28;20025;-66
2022/04/25 09:05:36;;;;;;;21.15;11.05;;;;;;;22.37;34.26;100786.28;5019939;28;20481;-66
2022/04/25 09:08:01;;;;;;;20.35;11.57;;;;;;;22.31;35.38;100781.66;5019716;28;20117;-67
2022/04/25 09:10:27;;;;;;;20.17;10.68;;;;;;;22.32;34.59;100791.53;5019937;28;20049;-66
2022/04/25 09:12:53;;;;;;;15.57;10.13;;;;;;;22.32;35.06;100794.28;5020029;28;20022;-65
2022/04/25 09:15:21;;;;;;;15.18;10.15;;;;;;;22.35;34.80;100799.31;5020347;28;20029;-66
2022/04/25 09:17:46;;;;;;;16.23;10.38;;;;;;;22.32;35.03;100798.88;5037447;28;20095;-66
2022/04/25 09:20:11;;;;;;;16.65;10.20;;;;;;;22.25;34.56;100795.31;5037805;28;20041;-66
2022/04/25 09:22:41;;;;;;;16.48;9.93;;;;;;;22.21;35.04;100794.88;5037981;28;20036;-66
2022/04/25 09:25:11;;;;;;;16.13;11.07;;;;;;;22.22;35.49;100799.25;5037681;28;20445;-66
2022/04/25 09:27:38;;;;;;;17.30;10.35;;;;;;;22.23;35.19;100795.50;5036958;28;20041;-67
2022/04/25 09:30:19;;;;;;;18.52;10.35;;;;;;;22.24;34.90;100802.66;5036964;28;20040;-66
2022/04/25 09:32:46;;;;;;;17.13;10.45;;;;;;;22.21;34.69;100803.06;5037703;28;20116;-66
2022/04/25 09:35:30;;;;;;;16.88;11.18;;;;;;;22.17;35.04;100801.78;5036765;28;20029;-66
2022/04/25 09:37:57;;;;;;;16.85;11.38;;;;;;;22.13;34.62;100795.06;5037127;28;20364;-66
2022/04/25 09:40:24;;;;;;;22.45;11.90;;;;;;;22.04;34.98;100805.31;5036984;28;20025;-66
2022/04/25 09:43:27;;;;;;;23.02;13.35;;;;;;;21.92;35.11;100804.19;5002399;28;20116;-66
2022/04/25 09:45:59;;;;;;;18.80;12.30;;;;;;;21.81;34.64;100812.09;4998974;28;20406;-66
2022/04/25 09:48:24;;;;;;;21.25;12.88;;;;;;;21.72;35.64;100807.88;5019284;28;20055;-66
2022/04/25 09:51:11;;;;;;;20.77;13.10;;;;;;;21.65;35.31;100809.69;5019834;28;20483;-66
2022/04/25 09:53:47;;;;;;;23.92;11.95;;;;;;;21.56;35.02;100819.09;5035791;28;20036;-66
2022/04/25 09:56:17;;;;;;;18.23;12.10;;;;;;;21.50;34.86;100812.53;5035741;28;20029;-66
2022/04/25 09:58:44;;;;;;;19.48;12.65;;;;;;;21.47;35.44;100816.53;5036264;28;20088;-66
2022/04/25 10:01:14;;;;;;;19.15;11.00;;;;;;;21.45;35.42;100824.06;5035857;28;20029;-66
2022/04/25 10:03:40;;;;;;;17.42;11.75;;;;;;;21.46;35.13;100820.31;5035683;28;20021;-67
2022/04/25 10:06:06;;;;;;;20.40;9.93;;;;;;;21.47;35.45;100827.41;5035465;28;20044;-66
2022/04/25 10:08:35;;;;;;;16.63;11.07;;;;;;;21.55;35.03;100825.59;5035767;28;20033;-66
2022/04/25 10:11:03;;;;;;;25.80;11.55;;;;;;;21.67;34.87;100829.41;5035673;28;20076;-66
2022/04/25 10:13:30;;;;;;;17.45;10.60;;;;;;;21.87;35.29;100822.22;5035648;28;20036;-67
2022/04/25 10:15:56;;;;;;;16.80;11.13;;;;;;;22.15;34.41;100822.97;5035677;28;20021;-66
2022/04/25 10:18:21;;;;;;;16.73;9.98;;;;;;;22.47;34.51;100824.13;5018239;28;20017;-66
2022/04/25 10:20:47;;;;;;;18.52;10.52;;;;;;;23.37;33.11;100820.81;5035928;28;20087;-67
2022/04/25 10:23:14;;;;;;;18.92;11.40;;;;;;;24.45;32.40;100820.06;5018129;28;20041;-67
2022/04/25 10:25:46;;;;;;;18.60;11.32;;;;;;;25.44;32.12;100812.75;5035517;28;20037;-67
2022/04/25 10:28:13;;;;;;;19.63;10.30;;;;;;;25.81;31.82;100817.22;5035211;28;20029;-67
2022/04/25 10:30:45;;;;;;;18.20;11.00;;;;;;;25.95;32.28;100816.00;5017649;28;20465;-67
2022/04/25 10:33:21;;;;;;;13.45;9.20;;;;;;;25.81;32.45;100810.91;5017784;28;20033;-67
2022/04/25 10:35:51;;;;;;;16.20;10.25;;;;;;;26.78;31.04;100818.03;5035085;28;20030;-67
2022/04/25 10:38:50;;;;;;;16.48;10.05;;;;;;;27.64;30.82;100812.75;5035194;28;20048;-67
2022/04/25 10:44:31;;;;;;;13.65;9.82;;;;;;;27.47;31.09;100815.41;5020178;28;20029;-66
2022/04/25 10:47:03;;;;;;;14.25;10.38;;;;;;;27.04;31.38;100824.00;5034488;28;20479;-67
2022/04/25 10:49:34;;;;;;;13.95;9.60;;;;;;;26.69;31.33;100819.47;5034940;28;20025;-66
2022/04/25 10:52:00;;;;;;;13.02;9.23;;;;;;;26.39;31.44;100825.81;5034966;28;20449;-66
2022/04/25 10:54:27;;;;;;;14.88;9.85;;;;;;;26.19;31.07;100824.38;5034789;28;20083;-66
2022/04/25 10:57:08;;;;;;;18.27;11.00;;;;;;;26.08;31.42;100822.38;5034951;28;20029;-66
2022/04/25 10:59:34;;;;;;;13.80;9.85;;;;;;;26.10;30.67;100820.28;5017065;28;20049;-66
2022/04/25 11:01:59;;;;;;;14.63;9.80;;;;;;;26.76;30.19;100823.78;5034620;28;20067;-66
2022/04/25 11:04:25;;;;;;;13.55;10.00;;;;;;;26.87;29.93;100823.00;5033646;28;20064;-67
2022/04/25 11:07:20;;;;;;;15.98;9.70;;;;;;;27.69;29.88;100812.91;5034356;28;20113;-67
2022/04/25 11:09:45;;;;;;;15.43;9.45;;;;;;;28.06;29.33;100816.19;5034463;28;20021;-67
2022/04/25 11:12:11;;;;;;;14.85;9.13;;;;;;;27.77;29.66;100819.94;5034491;28;20057;-66
2022/04/25 11:14:36;;;;;;;16.52;9.57;;;;;;;27.50;29.46;100822.38;5034160;28;20029;-66
2022/04/25 11:17:13;;;;;;;14.43;9.68;;;;;;;27.23;29.95;100821.13;5034096;28;20483;-66
2022/04/25 11:19:53;;;;;;;18.40;9.90;;;;;;;26.94;30.15;100829.22;5018209;28;20048;-66
2022/04/25 11:22:37;;;;;;;16.70;9.57;;;;;;;26.57;30.31;100834.00;5034341;28;20025;-66
2022/04/25 11:25:25;;;;;;;14.80;10.63;;;;;;;26.17;30.68;100838.38;5034322;28;20032;-66
2022/04/25 11:28:07;;;;;;;13.50;9.75;;;;;;;25.78;30.89;100839.66;5034560;28;20036;-66
2022/04/25 11:30:33;;;;;;;16.05;10.18;;;;;;;25.42;31.10;100840.41;5034114;28;20053;-66
2022/04/25 11:33:09;;;;;;;15.60;9.75;;;;;;;25.15;31.28;100844.47;5016587;28;20079;-66
2022/04/25 11:35:35;;;;;;;13.07;9.43;;;;;;;24.87;31.32;100847.63;5034220;28;20029;-66
2022/04/25 11:38:01;;;;;;;16.85;11.02;;;;;;;24.64;31.41;100851.97;5034353;28;20036;-66
2022/04/25 11:40:29;;;;;;;16.50;11.80;;;;;;;24.41;31.62;100855.25;5034441;28;20021;-66
2022/04/25 11:42:55;;;;;;;15.80;10.65;;;;;;;24.21;32.18;100840.81;5034201;28;20129;-66
2022/04/25 11:45:20;;;;;;;16.60;11.20;;;;;;;24.02;32.11;100853.50;5034254;28;20049;-66
2022/04/25 11:47:46;;;;;;;17.27;11.52;;;;;;;23.84;32.30;100849.81;5033487;28;20387;-66